Terminal Aerodrome Forecast
Issued by NWS

Home | Current Version | Previous Version | Text Only | Print | Product List | Glossary On
Versions: 1 2 3 4 5 6 7 8 9 10 11 12 13 14 15 16 17 18 19
000
FTUS43 KDVN 161900 AAA
TAFCID
TAF AMD
KCID 161901Z 1619/1718 17024G36KT P6SM SCT120 BKN250
     FM170000 15016G25KT P6SM BKN060
     FM170400 17013KT P6SM -RA BKN050
     FM170800 24010KT P6SM BKN150
     FM171400 30012KT P6SM SCT040 BKN150=

USA.gov is the U.S. government's official web portal to all federal, state and local government web resources and services.